sensor_id;sensor_type;location;lat;lon;timestamp;P1;durP1;ratioP1;P2;durP2;ratioP2
76749;SDS011;66447;35.844;14.468;2023-03-25T00:02:03;24.63;;;20.77;;
76749;SDS011;66447;35.844;14.468;2023-03-25T00:32:06;23.07;;;20.57;;
76749;SDS011;66447;35.844;14.468;2023-03-25T00:47:07;22.67;;;19.87;;
76749;SDS011;66447;35.844;14.468;2023-03-25T01:02:10;24.52;;;19.90;;
76749;SDS011;66447;35.844;14.468;2023-03-25T01:17:11;23.27;;;18.70;;
76749;SDS011;66447;35.844;14.468;2023-03-25T01:32:13;23.20;;;19.63;;
76749;SDS011;66447;35.844;14.468;2023-03-25T02:02:16;31.27;;;27.10;;
76749;SDS011;66447;35.844;14.468;2023-03-25T02:32:43;20.05;;;16.73;;
76749;SDS011;66447;35.844;14.468;2023-03-25T02:48:01;23.93;;;17.83;;
76749;SDS011;66447;35.844;14.468;2023-03-25T03:03:06;21.30;;;17.92;;
76749;SDS011;66447;35.844;14.468;2023-03-25T03:18:11;24.98;;;19.77;;
76749;SDS011;66447;35.844;14.468;2023-03-25T03:33:49;30.73;;;21.98;;
76749;SDS011;66447;35.844;14.468;2023-03-25T03:48:57;26.40;;;21.50;;
76749;SDS011;66447;35.844;14.468;2023-03-25T04:04:02;28.60;;;21.45;;
76749;SDS011;66447;35.844;14.468;2023-03-25T04:19:05;28.13;;;20.65;;
76749;SDS011;66447;35.844;14.468;2023-03-25T04:49:12;25.63;;;17.27;;
76749;SDS011;66447;35.844;14.468;2023-03-25T05:04:20;26.27;;;17.93;;
76749;SDS011;66447;35.844;14.468;2023-03-25T05:19:23;21.35;;;17.05;;
76749;SDS011;66447;35.844;14.468;2023-03-25T05:34:27;14.48;;;11.73;;
76749;SDS011;66447;35.844;14.468;2023-03-25T05:49:29;14.00;;;9.30;;
76749;SDS011;66447;35.844;14.468;2023-03-25T06:04:30;11.43;;;9.27;;
76749;SDS011;66447;35.844;14.468;2023-03-25T06:19:33;11.13;;;7.95;;
76749;SDS011;66447;35.844;14.468;2023-03-25T06:34:38;10.48;;;8.45;;
76749;SDS011;66447;35.844;14.468;2023-03-25T06:49:41;7.88;;;6.60;;
76749;SDS011;66447;35.844;14.468;2023-03-25T07:04:43;8.23;;;5.95;;
76749;SDS011;66447;35.844;14.468;2023-03-25T07:19:44;8.18;;;5.22;;
76749;SDS011;66447;35.844;14.468;2023-03-25T07:34:45;9.18;;;5.00;;
76749;SDS011;66447;35.844;14.468;2023-03-25T07:49:47;17.83;;;7.85;;
76749;SDS011;66447;35.844;14.468;2023-03-25T08:04:49;14.52;;;8.77;;
76749;SDS011;66447;35.844;14.468;2023-03-25T08:19:53;7.63;;;4.53;;
76749;SDS011;66447;35.844;14.468;2023-03-25T08:34:55;9.73;;;5.60;;
76749;SDS011;66447;35.844;14.468;2023-03-25T08:49:57;10.73;;;4.95;;
76749;SDS011;66447;35.844;14.468;2023-03-25T09:04:59;13.77;;;5.57;;
76749;SDS011;66447;35.844;14.468;2023-03-25T09:20:00;17.42;;;4.93;;
76749;SDS011;66447;35.844;14.468;2023-03-25T09:35:02;16.98;;;5.65;;
76749;SDS011;66447;35.844;14.468;2023-03-25T09:50:04;13.48;;;5.28;;
76749;SDS011;66447;35.844;14.468;2023-03-25T10:20:24;17.23;;;5.32;;
76749;SDS011;66447;35.844;14.468;2023-03-25T10:35:41;20.65;;;5.18;;
76749;SDS011;66447;35.844;14.468;2023-03-25T10:50:47;21.63;;;5.13;;
76749;SDS011;66447;35.844;14.468;2023-03-25T11:05:50;18.48;;;4.28;;
76749;SDS011;66447;35.844;14.468;2023-03-25T11:20:55;14.32;;;4.20;;
76749;SDS011;66447;35.844;14.468;2023-03-25T11:51:15;5.68;;;3.20;;
76749;SDS011;66447;35.844;14.468;2023-03-25T12:06:21;11.03;;;3.47;;
76749;SDS011;66447;35.844;14.468;2023-03-25T13:07:19;11.87;;;3.33;;
76749;SDS011;66447;35.844;14.468;2023-03-25T13:22:26;7.65;;;3.65;;
76749;SDS011;66447;35.844;14.468;2023-03-25T13:37:45;10.27;;;4.03;;
76749;SDS011;66447;35.844;14.468;2023-03-25T13:52:57;5.63;;;3.37;;
76749;SDS011;66447;35.844;14.468;2023-03-25T14:23:40;10.68;;;4.93;;
76749;SDS011;66447;35.844;14.468;2023-03-25T14:38:49;10.05;;;4.82;;
76749;SDS011;66447;35.844;14.468;2023-03-25T14:54:03;7.72;;;4.10;;
76749;SDS011;66447;35.844;14.468;2023-03-25T15:09:25;12.90;;;4.60;;
76749;SDS011;66447;35.844;14.468;2023-03-25T15:24:30;12.00;;;4.30;;
76749;SDS011;66447;35.844;14.468;2023-03-25T15:39:50;15.00;;;5.65;;
76749;SDS011;66447;35.844;14.468;2023-03-25T15:55:08;16.45;;;4.10;;
76749;SDS011;66447;35.844;14.468;2023-03-25T16:10:29;10.60;;;4.03;;
76749;SDS011;66447;35.844;14.468;2023-03-25T16:25:36;19.63;;;5.13;;
76749;SDS011;66447;35.844;14.468;2023-03-25T16:40:40;15.02;;;5.55;;
76749;SDS011;66447;35.844;14.468;2023-03-25T17:11:13;20.65;;;8.75;;
76749;SDS011;66447;35.844;14.468;2023-03-25T17:26:17;18.17;;;5.15;;
76749;SDS011;66447;35.844;14.468;2023-03-25T17:41:26;24.48;;;7.10;;
76749;SDS011;66447;35.844;14.468;2023-03-25T17:56:29;23.73;;;6.70;;
76749;SDS011;66447;35.844;14.468;2023-03-25T18:11:30;20.58;;;7.60;;
76749;SDS011;66447;35.844;14.468;2023-03-25T18:26:31;25.13;;;7.63;;
76749;SDS011;66447;35.844;14.468;2023-03-25T18:41:33;28.05;;;8.23;;
76749;SDS011;66447;35.844;14.468;2023-03-25T18:56:34;33.22;;;8.88;;
76749;SDS011;66447;35.844;14.468;2023-03-25T19:11:36;19.10;;;6.40;;
76749;SDS011;66447;35.844;14.468;2023-03-25T19:26:37;17.92;;;5.43;;
76749;SDS011;66447;35.844;14.468;2023-03-25T19:41:38;26.20;;;6.45;;
76749;SDS011;66447;35.844;14.468;2023-03-25T19:56:42;25.05;;;7.13;;
76749;SDS011;66447;35.844;14.468;2023-03-25T20:26:44;33.30;;;8.15;;
76749;SDS011;66447;35.844;14.468;2023-03-25T20:41:45;27.93;;;7.43;;
76749;SDS011;66447;35.844;14.468;2023-03-25T20:56:46;25.27;;;7.38;;
76749;SDS011;66447;35.844;14.468;2023-03-25T21:11:49;22.35;;;6.25;;
76749;SDS011;66447;35.844;14.468;2023-03-25T21:26:51;20.63;;;7.30;;
76749;SDS011;66447;35.844;14.468;2023-03-25T21:41:52;22.85;;;6.55;;
76749;SDS011;66447;35.844;14.468;2023-03-25T21:56:54;20.95;;;6.13;;
76749;SDS011;66447;35.844;14.468;2023-03-25T22:11:55;15.75;;;5.15;;
76749;SDS011;66447;35.844;14.468;2023-03-25T22:26:56;15.27;;;3.72;;
76749;SDS011;66447;35.844;14.468;2023-03-25T22:41:58;11.77;;;3.33;;
76749;SDS011;66447;35.844;14.468;2023-03-25T22:56:59;11.52;;;3.15;;
76749;SDS011;66447;35.844;14.468;2023-03-25T23:12:00;11.73;;;3.15;;
76749;SDS011;66447;35.844;14.468;2023-03-25T23:57:05;19.30;;;5.20;;
